Terminal Aerodrome Forecast
Issued by NWS Austin/San Antonio, TX

Home | Current Version | Previous Version | Text Only | Print | Product List | Glossary On
Versions: 1 2 3 4 5 6 7 8 9 10 11 12 13 14 15 16 17 18 19 20 21 22 23
000
FTUS44 KEWX 212300
TAFDRT
TAF
KDRT 212333Z 2200/2224 09005KT P6SM SCT060 OVC090
      TEMPO 2200/2202 -SHRA
     FM221200 10006KT P6SM BKN025
     FM221600 14010KT P6SM BKN050=

USA.gov is the U.S. government's official web portal to all federal, state and local government web resources and services.